Hornitos, CA (95325)

3:53 PM PDT on October 21, 2014 (GMT -0700)
Boat Club | Change Station
CLOSE
Current Station
Personal Weather Station
Location: Snelling, CA
Elevation: 950 ft
Nearby Weather Stations

Elev 950 ft 37.62 °N, 120.28 °W | Updated 7 seconds ago

Clear
Clear
70.2 °F
Feels Like 77 °F
N
14.0
Wind Variable Wind from WNW
Gusts 20.0 mph

Today
High -- | Low -- °F
--% Chance of Precip.
Yesterday
High -- | Low -- °F
Precip. -- in
7:14 AM 6:15 PM
Waning Crescent, 4% visible
Pressure 29.98 in
Visibility 10.0 miles
Clouds Clear
Heat Index 77 °F
Dew Point 42 °F
Humidity 36%
Rainfall 0.00 in
Snow Depth Not available.
UV 2 out of 12
Pollen 3.20 out of 12
Air Quality Not available.
Flu Activity Not available.
METAR KMER 212245Z 33014KT 10SM SKC 23/05 A2998

More Conditions Fewer Conditions

Pressure 29.98 in
Visibility 10.0 miles
Clouds Clear
Heat Index 77 °F
Dew Point 42 °F
Humidity 36%
Rainfall 0.00 in
Snow Depth Not available.
UV 2 out of 12
Pollen 3.20 out of 12
Air Quality Not available.
Flu Activity Not available.
METAR KMER 212245Z 33014KT 10SM SKC 23/05 A2998

More Conditions Fewer Conditions

10-Day Weather Forecast

Almanac

Astronomy

Oct. 21, 2014 Rise Set
Actual Time 7:14 AM PDT 6:15 PM PDT
Civil Twilight 6:48 AM PDT 6:42 PM PDT
Nautical Twilight 6:17 AM PDT 7:12 PM PDT
Astronomical Twilight 5:47 AM PDT 7:42 PM PDT
Moon 5:06 AM PDT 5:10 PM PDT
Length of Visible Light 11h 53m
Length of Day
11h 00m
Tomorrow will be 2m 16s shorter.
Waning Crescent, 4% of the Moon is Illuminated
Today
Waning Crescent
Oct 23
New
Oct 30
First Quarter
Nov 6
Full
Nov 14
Last Quarter

Today's Extremes

State Highs State Lows

Community

WunderPhotos

Upload Photos

1,763,806 photos uploaded!

Nearby

Snow Depth

Station Depth Elevation
Leavitt Meadows 0 in 7200 ft
Monitor Pass 1 in 8350 ft
Rubicon #2 0 in 7500 ft
Ward Creek #3 1 in 6750 ft
CSS Lab 0 in 6900 ft

Earthquake Activity

City Distance Mag. Time & Date
Mammoth Lakes, California 78 miles 3.0 11:10 PM PDT
2014-10-20
Lone Pine, California 136 miles 2.6 5:26 AM PDT
2014-10-19
Dixon Lane-Meadow Creek, California 97 miles 2.6 5:32 PM PDT
2014-10-18
Smith Valley, Nevada 91 miles 2.9 10:59 AM PDT
2014-10-18
Minimum magnitude displayed is 2.5.

Coastal Water Temperatures

Place Temperature
No Stations Reporting

Nearby Weather Stations